Vivien A — TCYC4 — position and weather

sailwx.info

Track history (hours):
 
Tides and Currents Weather Stations Pressure Air Temp Water Temp Dewpoint Dewpoint Depression Visibility Wind Speed Wind Dir Waves Ship Positions

Vivien A

Last reported at 2016-Jun-29 03:33 UTC. Time now 2016-Jun-30 12:26 UTC.
Position N 14°21' W 017°28'.

Length 210 m; draft 10.5 m.

Type: Ship (hazmat cat A). MMSI: 271040635.

Date/timePositionNaut miles runAvg speedWind from/ knotsBaromVisibWave heightAir tempDewpointWater temp
2016-Jun-29 03:33N 14°21' W 017°28'1515.0
2016-Jun-29 02:33N 14°35' W 017°23'7 6.1
2016-Jun-29 01:28N 14°41' W 017°26'0 0.3
2016-Jun-29 00:31N 14°41' W 017°26'0 0.0
2016-Jun-28 23:31N 14°41' W 017°26'0 0.0
2016-Jun-28 22:28N 14°41' W 017°26'0 0.0
2016-Jun-28 21:31N 14°41' W 017°26'0 0.0
2016-Jun-28 20:31N 14°41' W 017°26'0 0.0
2016-Jun-28 19:31N 14°41' W 017°26'0 0.0
2016-Jun-28 18:22N 14°41' W 017°26'0 0.0
2016-Jun-28 17:31N 14°41' W 017°26'0 0.0
2016-Jun-28 16:28N 14°41' W 017°26'0 0.0
2016-Jun-28 15:28N 14°41' W 017°26'0 0.0
2016-Jun-28 14:28N 14°41' W 017°26'0 0.0
2016-Jun-28 13:28N 14°41' W 017°26'0 0.0
2016-Jun-28 12:31N 14°41' W 017°26'0 0.0
2016-Jun-28 11:28N 14°41' W 017°26'0 0.0
2016-Jun-28 10:31N 14°41' W 017°26'0 0.0
2016-Jun-28 09:31N 14°41' W 017°26'0 0.2
2016-Jun-28 08:33N 14°41' W 017°26'4 3.8
2016-Jun-28 07:33N 14°39' W 017°22'0 0.2
2016-Jun-28 06:33N 14°39' W 017°22'0 0.0
2016-Jun-28 04:33N 14°39' W 017°22'0 0.1
2016-Jun-28 03:33N 14°39' W 017°22'0 0.0
2016-Jun-28 02:33N 14°39' W 017°22'0 0.0
2016-Jun-28 01:33N 14°39' W 017°22'0 0.0
2016-Jun-28 00:24N 14°39' W 017°22'0 0.1
2016-Jun-27 23:33N 14°39' W 017°22'0 0.0
2016-Jun-27 22:33N 14°39' W 017°22'0 0.1
2016-Jun-27 21:33N 14°39' W 017°22'0 0.0
2016-Jun-27 20:27N 14°39' W 017°22'0 0.0
2016-Jun-27 19:33N 14°39' W 017°22'0 0.1
2016-Jun-27 18:30N 14°39' W 017°22'0 0.0
2016-Jun-27 17:30N 14°39' W 017°22'0 0.1
2016-Jun-27 16:33N 14°39' W 017°22'0 0.0
2016-Jun-27 15:33N 14°39' W 017°22'0 0.0
2016-Jun-27 14:33N 14°39' W 017°22'0 0.1
2016-Jun-27 13:33N 14°39' W 017°22'0 0.0
2016-Jun-27 12:33N 14°39' W 017°22'0 0.1
2016-Jun-27 11:24N 14°39' W 017°22'0 0.0
2016-Jun-27 10:33N 14°39' W 017°22'0 0.0
2016-Jun-27 09:33N 14°39' W 017°22'0 0.0
2016-Jun-27 08:24N 14°39' W 017°22'0 0.0
2016-Jun-27 07:09N 14°39' W 017°22'0 0.0
2016-Jun-27 06:30N 14°39' W 017°22'0 0.0
2016-Jun-27 05:27N 14°39' W 017°22'0 0.0
2016-Jun-27 04:24N 14°39' W 017°22'0 0.0
2016-Jun-27 03:27N 14°39' W 017°22'0 0.0
2016-Jun-27 02:27N 14°39' W 017°22'0 0.0
2016-Jun-27 01:30N 14°39' W 017°22'0 0.1
2016-Jun-27 00:33N 14°39' W 017°22'0 0.0
2016-Jun-26 23:33N 14°39' W 017°22'0 0.0
2016-Jun-26 22:33N 14°39' W 017°22'0 0.0
2016-Jun-26 21:33N 14°39' W 017°22'0 0.0
2016-Jun-26 20:33N 14°39' W 017°22'0 0.0
2016-Jun-26 19:33N 14°39' W 017°22'0 0.0
2016-Jun-26 18:33N 14°39' W 017°22'0 0.1
2016-Jun-26 17:33N 14°39' W 017°22'0 0.1
2016-Jun-26 16:33N 14°39' W 017°22'0 0.0
2016-Jun-26 15:33N 14°39' W 017°22'0 0.1
2016-Jun-26 14:33N 14°39' W 017°22'0 0.0
2016-Jun-26 13:33N 14°39' W 017°22'0 0.0
2016-Jun-26 12:33N 14°39' W 017°22'0 0.0
2016-Jun-26 11:33N 14°39' W 017°22'1 1.0
2016-Jun-26 10:33N 14°38' W 017°23'9 9.0
2016-Jun-26 09:32N 14°37' W 017°32'11 9.5
2016-Jun-26 08:24N 14°46' W 017°39'911.1
2016-Jun-26 07:33N 14°55' W 017°39'1110.9
2016-Jun-26 06:32N 15°06' W 017°39'1111.2
2016-Jun-26 05:33N 15°17' W 017°39'1110.9
2016-Jun-26 04:33N 15°28' W 017°39'1110.9
2016-Jun-26 03:32N 15°39' W 017°39'27312.8
2016-Jun-25 06:12N 20°13' W 017°40'914.3
2016-Jun-25 05:33N 20°22' W 017°40'1514.8
2016-Jun-25 04:32N 20°37' W 017°37'34413.7
2016-Jun-24 03:29N 25°54' W 015°10'2311.8
2016-Jun-24 01:33N 26°13' W 014°57'1211.8
2016-Jun-24 00:32N 26°23' W 014°50'6311.8
2016-Jun-23 19:13N 27°18' W 014°14'2011.6
2016-Jun-23 17:28N 27°35' W 014°02'1112.0
2016-Jun-23 16:31N 27°45' W 013°56'11612.9
2016-Jun-23 07:33N 29°21' W 012°44'4013.2
2016-Jun-23 04:33N 29°54' W 012°17'1313.4
2016-Jun-23 03:33N 30°04' W 012°07'1313.1
2016-Jun-23 02:33N 30°15' W 011°58'1313.2
2016-Jun-23 01:33N 30°25' W 011°49'1313.5
2016-Jun-23 00:33N 30°36' W 011°40'1413.9
2016-Jun-22 23:33N 30°47' W 011°30'1413.7
2016-Jun-22 22:33N 30°58' W 011°21'1413.6
2016-Jun-22 21:33N 31°09' W 011°11'1413.7
2016-Jun-22 20:33N 31°20' W 011°02'1413.6
2016-Jun-22 19:33N 31°31' W 010°52'1413.6
2016-Jun-22 18:33N 31°42' W 010°43'1413.6
2016-Jun-22 17:33N 31°53' W 010°34'1413.7
2016-Jun-22 16:33N 32°04' W 010°24'1413.6
2016-Jun-22 15:33N 32°15' W 010°14'1612.9
2016-Jun-22 14:18N 32°27' W 010°02'3713.4
2016-Jun-22 11:31N 32°57' W 009°35'6813.4
2016-Jun-22 06:28N 33°46' W 008°39'1412.9
2016-Jun-22 05:24N 33°56' W 008°27'1113.0
2016-Jun-22 04:33N 34°03' W 008°17'1413.1
2016-Jun-22 03:30N 34°13' W 008°05'1813.1
2016-Jun-22 02:06N 34°26' W 007°49'713.3
2016-Jun-22 01:33N 34°31' W 007°43'1413.3
2016-Jun-22 00:28N 34°41' W 007°31'1213.4
2016-Jun-21 23:33N 34°50' W 007°20'1313.4
2016-Jun-21 22:33N 34°59' W 007°09'1413.7
2016-Jun-21 21:31N 35°09' W 006°56'1413.8
2016-Jun-21 20:28N 35°19' W 006°43'1314.2
2016-Jun-21 19:33N 35°28' W 006°32'6312.6
2016-Jun-21 14:33N 36°01' W 005°26'3 0.3
2016-Jun-21 05:33N 36°03' W 005°23'14 0.7
2016-Jun-20 09:28N 35°52' W 005°34'0 0.0
2016-Jun-20 08:34N 35°52' W 005°34'0 0.0
2016-Jun-20 04:26N 35°52' W 005°34'7 7.4
2016-Jun-20 03:32N 35°58' W 005°29'1010.6
2016-Jun-20 02:33N 36°07' W 005°25'0 0.5
2016-Jun-20 01:33N 36°08' W 005°25'0 0.0
2016-Jun-20 00:33N 36°08' W 005°25'0 0.0
2016-Jun-19 23:33N 36°08' W 005°25'0 0.0
2016-Jun-19 22:33N 36°08' W 005°25'0 0.0
2016-Jun-19 21:33N 36°08' W 005°25'0 0.0
2016-Jun-19 20:33N 36°08' W 005°25'0 0.0
2016-Jun-19 19:33N 36°08' W 005°25'0 0.0
2016-Jun-19 18:33N 36°08' W 005°25'0 0.0
2016-Jun-19 17:33N 36°08' W 005°25'0 0.0
2016-Jun-19 16:33N 36°08' W 005°25'0 0.0
2016-Jun-19 15:30N 36°08' W 005°25'0 0.0
2016-Jun-19 14:33N 36°08' W 005°25'0 0.0
2016-Jun-19 13:33N 36°08' W 005°25'0 0.0
2016-Jun-19 12:33N 36°08' W 005°25'0 0.0
2016-Jun-19 11:33N 36°08' W 005°25'0 0.0
2016-Jun-19 10:33N 36°08' W 005°25'2 1.8
2016-Jun-19 09:33N 36°07' W 005°23'7 6.8
2016-Jun-19 08:33N 36°04' W 005°16'  
Track history (hours):
 
Tides and Currents Weather Stations Pressure Air Temp Water Temp Dewpoint Dewpoint Depression Visibility Wind Speed Wind Dir Waves Ship Positions

Vivien A

Last reported at 2016-Jun-29 03:33 UTC. Time now 2016-Jun-30 12:26 UTC.
Position N 14°21' W 017°28'.

Length 210 m; draft 10.5 m.

Type: Ship (hazmat cat A). MMSI: 271040635.

Date/timePositionNaut miles runAvg speedWind from/ knotsBaromVisibWave heightAir tempDewpointWater temp
2016-Jun-29 03:33N 14°21' W 017°28'1515.0
2016-Jun-29 02:33N 14°35' W 017°23'7 6.1
2016-Jun-29 01:28N 14°41' W 017°26'0 0.3
2016-Jun-29 00:31N 14°41' W 017°26'0 0.0
2016-Jun-28 23:31N 14°41' W 017°26'0 0.0
2016-Jun-28 22:28N 14°41' W 017°26'0 0.0
2016-Jun-28 21:31N 14°41' W 017°26'0 0.0
2016-Jun-28 20:31N 14°41' W 017°26'0 0.0
2016-Jun-28 19:31N 14°41' W 017°26'0 0.0
2016-Jun-28 18:22N 14°41' W 017°26'0 0.0
2016-Jun-28 17:31N 14°41' W 017°26'0 0.0
2016-Jun-28 16:28N 14°41' W 017°26'0 0.0
2016-Jun-28 15:28N 14°41' W 017°26'0 0.0
2016-Jun-28 14:28N 14°41' W 017°26'0 0.0
2016-Jun-28 13:28N 14°41' W 017°26'0 0.0
2016-Jun-28 12:31N 14°41' W 017°26'0 0.0
2016-Jun-28 11:28N 14°41' W 017°26'0 0.0
2016-Jun-28 10:31N 14°41' W 017°26'0 0.0
2016-Jun-28 09:31N 14°41' W 017°26'0 0.2
2016-Jun-28 08:33N 14°41' W 017°26'4 3.8
2016-Jun-28 07:33N 14°39' W 017°22'0 0.2
2016-Jun-28 06:33N 14°39' W 017°22'0 0.0
2016-Jun-28 04:33N 14°39' W 017°22'0 0.1
2016-Jun-28 03:33N 14°39' W 017°22'0 0.0
2016-Jun-28 02:33N 14°39' W 017°22'0 0.0
2016-Jun-28 01:33N 14°39' W 017°22'0 0.0
2016-Jun-28 00:24N 14°39' W 017°22'0 0.1
2016-Jun-27 23:33N 14°39' W 017°22'0 0.0
2016-Jun-27 22:33N 14°39' W 017°22'0 0.1
2016-Jun-27 21:33N 14°39' W 017°22'0 0.0
2016-Jun-27 20:27N 14°39' W 017°22'0 0.0
2016-Jun-27 19:33N 14°39' W 017°22'0 0.1
2016-Jun-27 18:30N 14°39' W 017°22'0 0.0
2016-Jun-27 17:30N 14°39' W 017°22'0 0.1
2016-Jun-27 16:33N 14°39' W 017°22'0 0.0
2016-Jun-27 15:33N 14°39' W 017°22'0 0.0
2016-Jun-27 14:33N 14°39' W 017°22'0 0.1
2016-Jun-27 13:33N 14°39' W 017°22'0 0.0
2016-Jun-27 12:33N 14°39' W 017°22'0 0.1
2016-Jun-27 11:24N 14°39' W 017°22'0 0.0
2016-Jun-27 10:33N 14°39' W 017°22'0 0.0
2016-Jun-27 09:33N 14°39' W 017°22'0 0.0
2016-Jun-27 08:24N 14°39' W 017°22'0 0.0
2016-Jun-27 07:09N 14°39' W 017°22'0 0.0
2016-Jun-27 06:30N 14°39' W 017°22'0 0.0
2016-Jun-27 05:27N 14°39' W 017°22'0 0.0
2016-Jun-27 04:24N 14°39' W 017°22'0 0.0
2016-Jun-27 03:27N 14°39' W 017°22'0 0.0
2016-Jun-27 02:27N 14°39' W 017°22'0 0.0
2016-Jun-27 01:30N 14°39' W 017°22'0 0.1
2016-Jun-27 00:33N 14°39' W 017°22'0 0.0
2016-Jun-26 23:33N 14°39' W 017°22'0 0.0
2016-Jun-26 22:33N 14°39' W 017°22'0 0.0
2016-Jun-26 21:33N 14°39' W 017°22'0 0.0
2016-Jun-26 20:33N 14°39' W 017°22'0 0.0
2016-Jun-26 19:33N 14°39' W 017°22'0 0.0
2016-Jun-26 18:33N 14°39' W 017°22'0 0.1
2016-Jun-26 17:33N 14°39' W 017°22'0 0.1
2016-Jun-26 16:33N 14°39' W 017°22'0 0.0
2016-Jun-26 15:33N 14°39' W 017°22'0 0.1
2016-Jun-26 14:33N 14°39' W 017°22'0 0.0
2016-Jun-26 13:33N 14°39' W 017°22'0 0.0
2016-Jun-26 12:33N 14°39' W 017°22'0 0.0
2016-Jun-26 11:33N 14°39' W 017°22'1 1.0
2016-Jun-26 10:33N 14°38' W 017°23'9 9.0
2016-Jun-26 09:32N 14°37' W 017°32'11 9.5
2016-Jun-26 08:24N 14°46' W 017°39'911.1
2016-Jun-26 07:33N 14°55' W 017°39'1110.9
2016-Jun-26 06:32N 15°06' W 017°39'1111.2
2016-Jun-26 05:33N 15°17' W 017°39'1110.9
2016-Jun-26 04:33N 15°28' W 017°39'1110.9
2016-Jun-26 03:32N 15°39' W 017°39'27312.8
2016-Jun-25 06:12N 20°13' W 017°40'914.3
2016-Jun-25 05:33N 20°22' W 017°40'1514.8
2016-Jun-25 04:32N 20°37' W 017°37'34413.7
2016-Jun-24 03:29N 25°54' W 015°10'2311.8
2016-Jun-24 01:33N 26°13' W 014°57'1211.8
2016-Jun-24 00:32N 26°23' W 014°50'6311.8
2016-Jun-23 19:13N 27°18' W 014°14'2011.6
2016-Jun-23 17:28N 27°35' W 014°02'1112.0
2016-Jun-23 16:31N 27°45' W 013°56'11612.9
2016-Jun-23 07:33N 29°21' W 012°44'4013.2
2016-Jun-23 04:33N 29°54' W 012°17'1313.4
2016-Jun-23 03:33N 30°04' W 012°07'1313.1
2016-Jun-23 02:33N 30°15' W 011°58'1313.2
2016-Jun-23 01:33N 30°25' W 011°49'1313.5
2016-Jun-23 00:33N 30°36' W 011°40'1413.9
2016-Jun-22 23:33N 30°47' W 011°30'1413.7
2016-Jun-22 22:33N 30°58' W 011°21'1413.6
2016-Jun-22 21:33N 31°09' W 011°11'1413.7
2016-Jun-22 20:33N 31°20' W 011°02'1413.6
2016-Jun-22 19:33N 31°31' W 010°52'1413.6
2016-Jun-22 18:33N 31°42' W 010°43'1413.6
2016-Jun-22 17:33N 31°53' W 010°34'1413.7
2016-Jun-22 16:33N 32°04' W 010°24'1413.6
2016-Jun-22 15:33N 32°15' W 010°14'1612.9
2016-Jun-22 14:18N 32°27' W 010°02'3713.4
2016-Jun-22 11:31N 32°57' W 009°35'6813.4
2016-Jun-22 06:28N 33°46' W 008°39'1412.9
2016-Jun-22 05:24N 33°56' W 008°27'1113.0
2016-Jun-22 04:33N 34°03' W 008°17'1413.1
2016-Jun-22 03:30N 34°13' W 008°05'1813.1
2016-Jun-22 02:06N 34°26' W 007°49'713.3
2016-Jun-22 01:33N 34°31' W 007°43'1413.3
2016-Jun-22 00:28N 34°41' W 007°31'1213.4
2016-Jun-21 23:33N 34°50' W 007°20'1313.4
2016-Jun-21 22:33N 34°59' W 007°09'1413.7
2016-Jun-21 21:31N 35°09' W 006°56'1413.8
2016-Jun-21 20:28N 35°19' W 006°43'1314.2
2016-Jun-21 19:33N 35°28' W 006°32'6312.6
2016-Jun-21 14:33N 36°01' W 005°26'3 0.3
2016-Jun-21 05:33N 36°03' W 005°23'14 0.7
2016-Jun-20 09:28N 35°52' W 005°34'0 0.0
2016-Jun-20 08:34N 35°52' W 005°34'0 0.0
2016-Jun-20 04:26N 35°52' W 005°34'7 7.4
2016-Jun-20 03:32N 35°58' W 005°29'1010.6
2016-Jun-20 02:33N 36°07' W 005°25'0 0.5
2016-Jun-20 01:33N 36°08' W 005°25'0 0.0
2016-Jun-20 00:33N 36°08' W 005°25'0 0.0
2016-Jun-19 23:33N 36°08' W 005°25'0 0.0
2016-Jun-19 22:33N 36°08' W 005°25'0 0.0
2016-Jun-19 21:33N 36°08' W 005°25'0 0.0
2016-Jun-19 20:33N 36°08' W 005°25'0 0.0
2016-Jun-19 19:33N 36°08' W 005°25'0 0.0
2016-Jun-19 18:33N 36°08' W 005°25'0 0.0
2016-Jun-19 17:33N 36°08' W 005°25'0 0.0
2016-Jun-19 16:33N 36°08' W 005°25'0 0.0
2016-Jun-19 15:30N 36°08' W 005°25'0 0.0
2016-Jun-19 14:33N 36°08' W 005°25'0 0.0
2016-Jun-19 13:33N 36°08' W 005°25'0 0.0
2016-Jun-19 12:33N 36°08' W 005°25'0 0.0
2016-Jun-19 11:33N 36°08' W 005°25'0 0.0
2016-Jun-19 10:33N 36°08' W 005°25'2 1.8
2016-Jun-19 09:33N 36°07' W 005°23'7 6.8
2016-Jun-19 08:33N 36°04' W 005°16'  

Dump ship's entire track history